Time,TemperatureF,DewpointF,PressureIn,WindDirection,WindDirectionDegrees,WindSpeedMPH,WindSpeedGustMPH,Humidity,HourlyPrecipIn,Conditions,Clouds,dailyrainin,SoftwareType,DateUTC
2015-07-03 00:23:00,76.0,49.0,30.06,SW,231,18.0,29.0,39,-99.99,,,-99.99,,2015-07-03 07:23:00,
2015-07-03 00:33:00,76.0,49.0,30.06,SW,231,18.0,29.0,39,-99.99,,,-99.99,,2015-07-03 07:33:00,
2015-07-03 00:43:00,76.0,49.0,30.06,SW,231,18.0,29.0,39,-99.99,,,-99.99,,2015-07-03 07:43:00,
2015-07-03 00:53:00,76.0,49.0,30.06,SW,231,18.0,29.0,39,-99.99,,,-99.99,,2015-07-03 07:53:00,
2015-07-03 01:23:00,76.0,51.0,30.04,SW,232,21.0,27.0,41,-99.99,,,-99.99,,2015-07-03 08:23:00,
2015-07-03 01:33:00,76.0,51.0,30.04,SW,232,21.0,27.0,41,-99.99,,,-99.99,,2015-07-03 08:33:00,
2015-07-03 01:43:00,76.0,51.0,30.04,SW,232,21.0,27.0,41,-99.99,,,-99.99,,2015-07-03 08:43:00,
2015-07-03 01:53:00,76.0,51.0,30.04,SW,232,21.0,27.0,41,-99.99,,,-99.99,,2015-07-03 08:53:00,
2015-07-03 02:23:00,75.0,51.0,30.04,SW,229,19.0,29.0,43,-99.99,,,-99.99,,2015-07-03 09:23:00,
2015-07-03 02:33:00,75.0,51.0,30.04,SW,229,19.0,29.0,43,-99.99,,,-99.99,,2015-07-03 09:33:00,
2015-07-03 02:43:00,75.0,51.0,30.04,SW,229,19.0,29.0,43,-99.99,,,-99.99,,2015-07-03 09:43:00,
2015-07-03 02:53:00,75.0,51.0,30.04,SW,229,19.0,29.0,43,-99.99,,,-99.99,,2015-07-03 09:53:00,
2015-07-03 03:23:00,75.0,51.0,30.03,SW,227,17.0,30.0,43,-99.99,,,-99.99,,2015-07-03 10:23:00,
2015-07-03 03:33:00,75.0,51.0,30.03,SW,227,17.0,30.0,43,-99.99,,,-99.99,,2015-07-03 10:33:00,
2015-07-03 03:43:00,75.0,51.0,30.03,SW,227,17.0,30.0,43,-99.99,,,-99.99,,2015-07-03 10:43:00,
2015-07-03 03:53:00,75.0,51.0,30.03,SW,227,17.0,30.0,43,-99.99,,,-99.99,,2015-07-03 10:53:00,
2015-07-03 04:23:00,75.0,52.0,30.02,SSW,211,19.0,26.0,44,-99.99,,,-99.99,,2015-07-03 11:23:00,
2015-07-03 04:33:00,75.0,52.0,30.02,SSW,211,19.0,26.0,44,-99.99,,,-99.99,,2015-07-03 11:33:00,
2015-07-03 04:44:00,75.0,52.0,30.02,SSW,211,19.0,26.0,44,-99.99,,,-99.99,,2015-07-03 11:44:00,
2015-07-03 04:53:00,75.0,52.0,30.02,SSW,211,19.0,26.0,44,-99.99,,,-99.99,,2015-07-03 11:53:00,
2015-07-03 05:23:00,74.0,51.0,30.01,SW,215,22.0,34.0,44,-99.99,,,-99.99,,2015-07-03 12:23:00,
2015-07-03 05:33:00,74.0,51.0,30.01,SW,215,22.0,34.0,44,-99.99,,,-99.99,,2015-07-03 12:33:00,
2015-07-03 05:43:00,74.0,51.0,30.01,SW,215,22.0,34.0,44,-99.99,,,-99.99,,2015-07-03 12:43:00,
2015-07-03 05:53:00,74.0,51.0,30.01,SW,215,22.0,34.0,44,-99.99,,,-99.99,,2015-07-03 12:53:00,
2015-07-03 06:23:00,72.0,51.0,30.02,SW,218,23.0,36.0,47,-99.99,,,-99.99,,2015-07-03 13:23:00,
2015-07-03 06:33:00,72.0,51.0,30.02,SW,218,23.0,36.0,47,-99.99,,,-99.99,,2015-07-03 13:33:00,
2015-07-03 06:43:00,72.0,51.0,30.02,SW,218,23.0,36.0,47,-99.99,,,-99.99,,2015-07-03 13:43:00,
2015-07-03 06:53:00,72.0,51.0,30.02,SW,218,23.0,36.0,47,-99.99,,,-99.99,,2015-07-03 13:53:00,
2015-07-03 07:23:00,73.0,50.0,30.03,SW,225,23.0,36.0,44,-99.99,,,-99.99,,2015-07-03 14:23:00,
2015-07-03 07:33:00,73.0,50.0,30.03,SW,225,23.0,36.0,44,-99.99,,,-99.99,,2015-07-03 14:33:00,
2015-07-03 07:43:00,73.0,50.0,30.03,SW,225,23.0,36.0,44,-99.99,,,-99.99,,2015-07-03 14:43:00,
2015-07-03 07:53:00,73.0,50.0,30.03,SW,225,23.0,36.0,44,-99.99,,,-99.99,,2015-07-03 14:53:00,
2015-07-03 08:23:00,78.0,49.0,30.03,SW,218,22.0,39.0,36,-99.99,,,-99.99,,2015-07-03 15:23:00,
2015-07-03 08:33:00,78.0,49.0,30.03,SW,218,22.0,39.0,36,-99.99,,,-99.99,,2015-07-03 15:33:00,
2015-07-03 08:43:00,78.0,49.0,30.03,SW,218,22.0,39.0,36,-99.99,,,-99.99,,2015-07-03 15:43:00,
2015-07-03 08:53:00,78.0,49.0,30.03,SW,218,22.0,39.0,36,-99.99,,,-99.99,,2015-07-03 15:53:00,
2015-07-03 09:23:00,81.0,51.0,30.06,SSW,213,20.0,-999.0,35,-99.99,,,-99.99,,2015-07-03 16:23:00,
2015-07-03 09:33:00,81.0,51.0,30.06,SSW,213,20.0,36.0,35,-99.99,,,-99.99,,2015-07-03 16:33:00,
2015-07-03 09:43:00,81.0,51.0,30.06,SSW,213,20.0,36.0,35,-99.99,,,-99.99,,2015-07-03 16:43:00,
2015-07-03 09:53:00,81.0,51.0,30.06,SSW,213,20.0,36.0,35,-99.99,,,-99.99,,2015-07-03 16:53:00,